createdAt,value
2022-11-30T00:02:10.884Z,48.83
2022-11-30T00:05:13.333Z,52.40
2022-11-30T00:08:15.573Z,54.10
2022-11-30T00:11:20.845Z,51.28
2022-11-30T00:14:22.955Z,48.65
2022-11-30T00:17:24.939Z,45.75
2022-11-30T00:20:28.267Z,46.80
2022-11-30T00:26:36.397Z,45.67
2022-11-30T00:29:38.194Z,52.33
2022-11-30T00:32:39.914Z,47.28
2022-11-30T00:35:41.650Z,54.60
2022-11-30T00:38:44.578Z,53.40
2022-11-30T00:41:46.522Z,52.17
2022-11-30T00:44:48.429Z,54.40
2022-11-30T00:47:50.529Z,53.88
2022-11-30T00:50:52.599Z,52.97
2022-11-30T00:53:54.649Z,47.60
2022-11-30T00:56:56.415Z,52.88
2022-11-30T00:59:58.163Z,54.92
2022-11-30T01:02:59.921Z,54.47
2022-11-30T01:06:06.281Z,54.05
2022-11-30T01:09:08.129Z,53.95
2022-11-30T01:12:10.410Z,54.63
2022-11-30T01:15:12.146Z,59.67
2022-11-30T01:18:14.103Z,52.47
2022-11-30T01:21:19.268Z,52.28
2022-11-30T01:24:20.989Z,53.35
2022-11-30T01:27:23.052Z,60.50
2022-11-30T01:30:24.953Z,51.10
2022-11-30T01:33:26.862Z,54.30
2022-11-30T01:36:28.644Z,52.50
2022-11-30T01:39:30.344Z,51.83
2022-11-30T01:42:33.140Z,51.67
2022-11-30T01:45:35.108Z,54.55
2022-11-30T01:48:36.848Z,52.58
2022-11-30T01:51:48.629Z,47.63
2022-11-30T01:55:07.130Z,55.78
2022-11-30T01:58:13.866Z,56.00
2022-11-30T02:01:15.791Z,50.13
2022-11-30T02:04:33.051Z,54.92
2022-11-30T02:07:35.407Z,59.38
2022-11-30T02:10:41.204Z,58.75
2022-11-30T02:13:53.081Z,62.60
2022-11-30T02:17:25.443Z,66.88
2022-11-30T02:20:46.457Z,63.38
2022-11-30T02:23:57.318Z,61.50
2022-11-30T02:27:31.337Z,67.70
2022-11-30T02:30:37.112Z,61.83
2022-11-30T02:33:40.496Z,62.80
2022-11-30T02:39:44.654Z,58.67
2022-11-30T02:42:49.445Z,54.97
2022-11-30T02:46:04.823Z,59.78
2022-11-30T02:49:28.809Z,58.90
2022-11-30T02:52:32.209Z,54.22
2022-11-30T02:58:36.187Z,48.95
2022-11-30T03:01:38.683Z,54.58
2022-11-30T03:04:40.803Z,53.70
2022-11-30T03:07:42.946Z,55.00
2022-11-30T03:10:44.970Z,51.08
2022-11-30T03:13:47.147Z,51.28
2022-11-30T03:16:48.888Z,56.47
2022-11-30T03:19:50.863Z,56.28
2022-11-30T03:22:52.628Z,58.75
2022-11-30T03:25:58.941Z,58.08
2022-11-30T03:29:00.732Z,53.45
2022-11-30T03:32:02.440Z,58.78
2022-11-30T03:35:04.690Z,50.00
2022-11-30T03:38:06.681Z,51.30
2022-11-30T03:41:13.550Z,52.10
2022-11-30T03:44:15.355Z,54.30
2022-11-30T03:47:17.363Z,47.30
2022-11-30T03:50:19.353Z,47.78
2022-11-30T03:53:22.876Z,47.53
2022-11-30T03:56:25.090Z,47.20
2022-11-30T03:59:26.809Z,40.90
2022-11-30T04:02:28.622Z,39.63
2022-11-30T04:05:30.775Z,42.88
2022-11-30T04:08:32.804Z,43.92
2022-11-30T04:11:35.927Z,41.72
2022-11-30T04:14:37.727Z,36.47
2022-11-30T04:17:39.608Z,34.55
2022-11-30T04:20:41.835Z,34.30
2022-11-30T04:23:43.612Z,35.25
2022-11-30T04:26:46.113Z,42.35
2022-11-30T04:29:47.881Z,39.17
2022-11-30T04:32:49.634Z,37.58
2022-11-30T04:35:56.942Z,38.97
2022-11-30T04:38:58.759Z,36.75
2022-11-30T04:42:00.817Z,37.60
2022-11-30T04:45:02.611Z,41.92
2022-11-30T04:48:06.018Z,39.83
2022-11-30T04:54:10.111Z,44.22
2022-11-30T04:57:11.832Z,45.25
2022-11-30T05:00:16.347Z,45.70
2022-11-30T05:03:18.093Z,47.05
2022-11-30T05:06:20.141Z,49.45
2022-11-30T05:09:22.088Z,49.63
2022-11-30T05:12:24.610Z,46.47
2022-11-30T05:15:26.427Z,55.27
2022-11-30T05:18:29.690Z,50.88
2022-11-30T05:21:31.942Z,45.63
2022-11-30T05:24:34.123Z,45.08
2022-11-30T05:27:36.744Z,42.45
2022-11-30T05:30:43.029Z,50.15
2022-11-30T05:33:49.574Z,44.88
2022-11-30T05:36:51.683Z,44.88
2022-11-30T05:39:53.540Z,44.80
2022-11-30T05:42:57.514Z,50.20
2022-11-30T05:46:01.095Z,46.92
2022-11-30T05:49:03.044Z,47.92
2022-11-30T05:52:04.952Z,50.03
2022-11-30T05:55:07.137Z,67.75
2022-11-30T05:58:08.887Z,57.70
2022-11-30T06:01:25.548Z,57.28
2022-11-30T06:04:27.535Z,60.38
2022-11-30T06:07:29.374Z,55.97
2022-11-30T06:10:31.632Z,56.45
2022-11-30T06:13:33.906Z,57.67
2022-11-30T06:16:38.510Z,63.00
2022-11-30T06:19:40.244Z,65.35
2022-11-30T06:22:45.555Z,66.65
2022-11-30T06:25:47.424Z,61.88
2022-11-30T06:28:49.409Z,56.45
2022-11-30T06:31:51.299Z,59.90
2022-11-30T06:34:53.056Z,58.53
2022-11-30T06:37:55.186Z,63.30
2022-11-30T06:41:06.886Z,61.40
2022-11-30T06:44:11.529Z,63.70
2022-11-30T06:47:13.450Z,62.00
2022-11-30T06:50:15.503Z,56.58
2022-11-30T06:53:17.447Z,57.33
2022-11-30T06:56:19.365Z,64.45
2022-11-30T06:59:21.046Z,60.65
2022-11-30T07:02:23.468Z,58.13
2022-11-30T07:05:25.471Z,60.17
2022-11-30T07:08:27.436Z,61.25
2022-11-30T07:11:29.799Z,61.50
2022-11-30T07:14:31.940Z,63.13
2022-11-30T07:17:33.643Z,63.10
2022-11-30T07:20:36.459Z,65.38
2022-11-30T07:23:57.278Z,60.85
2022-11-30T07:27:00.760Z,61.53
2022-11-30T07:33:04.159Z,62.92
2022-11-30T07:36:06.343Z,59.20
2022-11-30T07:39:08.405Z,63.17
2022-11-30T07:42:10.903Z,59.30
2022-11-30T07:45:12.601Z,72.17
2022-11-30T07:48:14.511Z,56.88
2022-11-30T07:51:19.820Z,61.38
2022-11-30T07:54:21.748Z,56.17
2022-11-30T07:57:23.583Z,58.33
2022-11-30T08:00:25.447Z,59.35
2022-11-30T08:03:28.560Z,60.20
2022-11-30T08:06:32.552Z,61.20
2022-11-30T08:09:34.543Z,63.33
2022-11-30T08:12:36.762Z,58.75
2022-11-30T08:15:39.154Z,65.38
2022-11-30T08:18:42.285Z,62.50
2022-11-30T08:21:44.240Z,58.63
2022-11-30T08:24:46.121Z,58.65
2022-11-30T08:27:48.290Z,56.28
2022-11-30T08:30:50.283Z,57.13
2022-11-30T08:34:00.119Z,62.47
2022-11-30T08:37:01.818Z,55.88
2022-11-30T08:40:04.253Z,54.40
2022-11-30T08:43:06.195Z,59.27
2022-11-30T08:46:34.897Z,56.58
2022-11-30T08:49:32.523Z,54.90
2022-11-30T08:52:34.390Z,56.47
2022-11-30T08:55:36.077Z,55.13
2022-11-30T08:58:39.649Z,54.60
2022-11-30T09:01:42.669Z,50.95
2022-11-30T09:04:44.725Z,52.42
2022-11-30T09:07:46.831Z,54.50
2022-11-30T09:10:48.745Z,50.28
2022-11-30T09:13:53.142Z,46.80
2022-11-30T09:16:55.340Z,52.63
2022-11-30T09:19:57.130Z,52.90
2022-11-30T09:22:59.703Z,53.78
2022-11-30T09:26:04.326Z,47.38
2022-11-30T09:29:06.313Z,47.55
2022-11-30T09:32:08.378Z,51.17
2022-11-30T09:35:12.728Z,44.55
2022-11-30T09:38:15.034Z,47.58
2022-11-30T09:41:22.776Z,45.08
2022-11-30T09:44:50.647Z,42.22
2022-11-30T09:48:11.209Z,43.60
2022-11-30T09:51:20.628Z,51.38
2022-11-30T09:54:35.629Z,46.85
2022-11-30T09:57:50.688Z,45.55
2022-11-30T10:00:52.531Z,111.30
2022-11-30T10:03:54.428Z,57.13
2022-11-30T10:07:15.168Z,139.38
2022-11-30T10:10:32.670Z,72.13
2022-11-30T10:13:47.734Z,53.03
2022-11-30T10:17:17.264Z,60.47
2022-11-30T10:20:31.761Z,683.15
2022-11-30T10:23:53.753Z,313.40
2022-11-30T10:27:12.021Z,81.15
2022-11-30T10:30:22.993Z,65.38
2022-11-30T10:33:38.167Z,248.85
2022-11-30T10:36:44.418Z,231.65
2022-11-30T10:40:00.227Z,118.53
2022-11-30T10:43:20.900Z,87.82
2022-11-30T10:46:28.521Z,38.70
2022-11-30T10:49:32.912Z,35.13
2022-11-30T10:52:43.764Z,34.03
2022-11-30T10:56:08.457Z,36.20
2022-11-30T10:59:16.346Z,33.28
2022-11-30T11:02:46.807Z,35.42
2022-11-30T11:06:02.400Z,45.00
2022-11-30T11:09:23.549Z,34.08
2022-11-30T11:12:27.864Z,35.78
2022-11-30T11:15:34.702Z,35.58
2022-11-30T11:18:51.188Z,36.42
2022-11-30T11:21:53.602Z,36.38
2022-11-30T11:25:30.838Z,34.22
2022-11-30T11:28:35.486Z,35.45
2022-11-30T11:31:46.479Z,30.77
2022-11-30T11:34:51.251Z,35.47
2022-11-30T11:37:53.507Z,40.03
2022-11-30T11:41:03.836Z,168.20
2022-11-30T11:44:11.189Z,78.20
2022-11-30T11:47:23.146Z,168.63
2022-11-30T11:51:05.618Z,326.15
2022-11-30T11:54:11.966Z,384.33
2022-11-30T11:57:16.838Z,178.50
2022-11-30T12:00:21.577Z,69.50
2022-11-30T12:03:41.893Z,99.13
2022-11-30T12:06:45.418Z,68.07
2022-11-30T12:12:59.344Z,39.83
2022-11-30T12:16:15.090Z,34.55
2022-11-30T12:19:58.036Z,33.90
2022-11-30T12:23:08.791Z,32.35
2022-11-30T12:26:19.437Z,31.95
2022-11-30T12:29:48.518Z,31.75
2022-11-30T12:33:10.039Z,58.50
2022-11-30T12:36:51.694Z,30.25
2022-11-30T12:40:20.896Z,37.22
2022-11-30T12:43:38.097Z,27.58
2022-11-30T12:46:54.974Z,31.30
2022-11-30T12:50:46.374Z,39.30
2022-11-30T12:54:04.580Z,37.42
2022-11-30T12:57:21.202Z,39.38
2022-11-30T13:00:25.310Z,30.52
2022-11-30T13:03:46.582Z,34.17
2022-11-30T13:06:56.141Z,29.60
2022-11-30T13:10:23.228Z,31.95
2022-11-30T13:13:29.884Z,293.33
2022-11-30T13:16:34.468Z,142.55
2022-11-30T13:19:54.675Z,40.53
2022-11-30T13:23:01.651Z,27.33
2022-11-30T13:26:19.387Z,24.83
2022-11-30T13:29:27.144Z,23.63
2022-11-30T13:32:57.442Z,45.80
2022-11-30T13:35:54.692Z,32.20
2022-11-30T13:39:15.037Z,27.90
2022-11-30T13:42:37.828Z,29.08
2022-11-30T13:45:39.708Z,32.95
2022-11-30T13:48:43.862Z,30.05
2022-11-30T13:51:46.136Z,30.90
2022-11-30T13:54:57.239Z,43.17
2022-11-30T13:57:59.110Z,37.30
2022-11-30T14:01:27.181Z,36.80
2022-11-30T14:04:33.205Z,33.45
2022-11-30T14:07:37.913Z,32.05
2022-11-30T14:10:47.549Z,33.85
2022-11-30T14:13:49.408Z,32.50
2022-11-30T14:16:51.315Z,29.02
2022-11-30T14:20:00.272Z,27.98
2022-11-30T14:23:15.571Z,26.88
2022-11-30T14:26:24.752Z,26.33
2022-11-30T14:29:35.595Z,28.40
2022-11-30T14:32:44.012Z,28.55
2022-11-30T14:35:49.076Z,28.17
2022-11-30T14:38:50.871Z,27.98
2022-11-30T14:41:53.222Z,24.17
2022-11-30T14:44:56.403Z,27.17
2022-11-30T14:48:06.067Z,25.67
2022-11-30T14:51:11.049Z,20.58
2022-11-30T14:54:24.854Z,22.25
2022-11-30T14:57:38.696Z,24.92
2022-11-30T15:00:43.029Z,23.90
2022-11-30T15:03:46.091Z,22.98
2022-11-30T15:06:47.880Z,23.80
2022-11-30T15:09:54.836Z,24.63
2022-11-30T15:12:59.259Z,26.50
2022-11-30T15:16:00.973Z,25.45
2022-11-30T15:19:25.194Z,23.23
2022-11-30T15:22:34.988Z,27.70
2022-11-30T15:25:50.487Z,25.88
2022-11-30T15:29:16.984Z,27.42
2022-11-30T15:32:23.875Z,27.25
2022-11-30T15:35:38.723Z,26.77
2022-11-30T15:38:50.559Z,27.20
2022-11-30T15:41:58.371Z,26.67
2022-11-30T15:45:16.597Z,27.23
2022-11-30T15:48:29.443Z,27.02
2022-11-30T15:51:38.508Z,26.25
2022-11-30T15:54:54.179Z,27.63
2022-11-30T15:58:01.875Z,27.33
2022-11-30T16:01:06.541Z,28.15
2022-11-30T16:04:08.567Z,25.05
2022-11-30T16:07:18.774Z,27.45
2022-11-30T16:10:33.992Z,30.88
2022-11-30T16:13:35.775Z,32.15
2022-11-30T16:16:37.771Z,31.13
2022-11-30T16:19:39.919Z,29.88
2022-11-30T16:22:43.615Z,37.22
2022-11-30T16:25:46.927Z,37.78
2022-11-30T16:31:50.482Z,42.08
2022-11-30T16:34:52.528Z,44.90
2022-11-30T16:37:54.483Z,63.17
2022-11-30T16:41:10.419Z,57.70
2022-11-30T16:44:14.435Z,54.03
2022-11-30T16:47:16.511Z,76.05
2022-11-30T16:50:19.501Z,74.47
2022-11-30T16:53:24.873Z,44.67
2022-11-30T16:56:29.415Z,39.20
2022-11-30T16:59:31.474Z,35.83
2022-11-30T17:02:34.116Z,37.15
2022-11-30T17:05:36.805Z,36.63
2022-11-30T17:08:39.522Z,34.97
2022-11-30T17:11:41.995Z,32.00
2022-11-30T17:14:43.723Z,38.42
2022-11-30T17:17:45.896Z,54.58
2022-11-30T17:20:47.865Z,43.35
2022-11-30T17:23:50.038Z,37.00
2022-11-30T17:26:51.911Z,35.13
2022-11-30T17:29:53.714Z,37.10
2022-11-30T17:32:55.500Z,46.05
2022-11-30T17:35:58.717Z,44.45
2022-11-30T17:39:07.679Z,40.90
2022-11-30T17:42:10.381Z,46.45
2022-11-30T17:45:12.342Z,46.03
2022-11-30T17:48:16.016Z,45.75
2022-11-30T17:51:18.105Z,35.22
2022-11-30T17:54:20.172Z,35.08
2022-11-30T17:57:22.085Z,62.28
2022-11-30T18:00:27.635Z,38.38
2022-11-30T18:03:30.608Z,28.73
2022-11-30T18:06:32.600Z,28.73
2022-11-30T18:09:40.812Z,29.10
2022-11-30T18:12:44.739Z,27.80
2022-11-30T18:15:46.813Z,28.88
2022-11-30T18:18:49.363Z,41.53
2022-11-30T18:21:51.213Z,36.57
2022-11-30T18:24:52.981Z,31.70
2022-11-30T18:27:54.981Z,26.58
2022-11-30T18:30:56.957Z,27.70
2022-11-30T18:34:01.114Z,36.40
2022-11-30T18:37:03.109Z,32.42
2022-11-30T18:40:05.589Z,33.28
2022-11-30T18:43:07.552Z,56.50
2022-11-30T18:46:11.731Z,35.88
2022-11-30T18:49:13.622Z,32.10
2022-11-30T18:52:15.428Z,28.38
2022-11-30T18:55:17.319Z,26.73
2022-11-30T18:58:19.320Z,26.95
2022-11-30T19:01:21.450Z,27.55
2022-11-30T19:04:27.072Z,26.67
2022-11-30T19:07:29.444Z,26.45
2022-11-30T19:10:36.455Z,25.98
2022-11-30T19:13:38.292Z,27.42
2022-11-30T19:16:40.755Z,28.95
2022-11-30T19:19:42.831Z,25.23
2022-11-30T19:22:44.700Z,27.33
2022-11-30T19:25:46.661Z,222.88
2022-11-30T19:28:48.379Z,95.70
2022-11-30T19:31:50.137Z,300.20
2022-11-30T19:34:52.670Z,482.08
2022-11-30T19:37:54.569Z,473.83
2022-11-30T19:40:56.687Z,178.02
2022-11-30T19:44:04.119Z,368.60
2022-11-30T19:47:06.637Z,267.25
2022-11-30T19:50:08.787Z,192.50
2022-11-30T19:53:10.514Z,187.77
2022-11-30T19:56:15.133Z,269.02
2022-11-30T19:59:17.185Z,183.80
2022-11-30T20:02:19.346Z,113.22
2022-11-30T20:05:21.212Z,77.50
2022-11-30T20:08:23.473Z,75.57
2022-11-30T20:11:25.292Z,97.93
2022-11-30T20:14:27.202Z,122.63
2022-11-30T20:17:29.219Z,97.07
2022-11-30T20:20:31.073Z,104.85
2022-11-30T20:23:34.955Z,122.55
2022-11-30T20:26:42.175Z,104.97
2022-11-30T20:29:44.515Z,92.28
2022-11-30T20:32:46.465Z,78.05
2022-11-30T20:35:48.288Z,106.78
2022-11-30T20:38:50.486Z,84.22
2022-11-30T20:41:52.230Z,69.10
2022-11-30T20:44:54.379Z,113.55
2022-11-30T20:47:56.121Z,96.45
2022-11-30T20:51:29.301Z,132.10
2022-11-30T20:54:30.591Z,196.80
2022-11-30T20:57:33.164Z,329.55
2022-11-30T21:00:35.535Z,299.15
2022-11-30T21:03:37.699Z,70.00
2022-11-30T21:06:45.750Z,43.55
2022-11-30T21:09:47.805Z,293.40
2022-11-30T21:12:49.796Z,513.97
2022-11-30T21:15:51.814Z,252.55
2022-11-30T21:18:53.756Z,295.52
2022-11-30T21:21:56.643Z,135.80
2022-11-30T21:24:58.395Z,44.20
2022-11-30T21:28:00.406Z,39.22
2022-11-30T21:31:03.916Z,45.92
2022-11-30T21:34:06.102Z,34.40
2022-11-30T21:37:08.062Z,33.60
2022-11-30T21:40:10.903Z,33.90
2022-11-30T21:43:12.609Z,54.40
2022-11-30T21:46:17.750Z,68.72
2022-11-30T21:49:19.623Z,56.83
2022-11-30T21:52:21.428Z,62.63
2022-11-30T21:55:23.179Z,56.58
2022-11-30T21:58:25.114Z,33.58
2022-11-30T22:01:38.603Z,54.75
2022-11-30T22:04:40.431Z,33.47
2022-11-30T22:07:43.297Z,33.53
2022-11-30T22:10:45.243Z,33.75
2022-11-30T22:13:54.341Z,34.60
2022-11-30T22:16:56.187Z,37.10
2022-11-30T22:19:58.267Z,36.33
2022-11-30T22:23:00.005Z,36.63
2022-11-30T22:26:17.082Z,33.00
2022-11-30T22:29:22.484Z,36.97
2022-11-30T22:32:24.563Z,37.90
2022-11-30T22:35:26.459Z,35.35
2022-11-30T22:38:31.667Z,38.60
2022-11-30T22:41:33.787Z,37.80
2022-11-30T22:44:35.769Z,37.05
2022-11-30T22:47:37.643Z,40.42
2022-11-30T22:50:39.629Z,43.67
2022-11-30T22:53:43.891Z,44.05
2022-11-30T22:56:46.571Z,44.58
2022-11-30T22:59:49.127Z,47.83
2022-11-30T23:02:51.321Z,45.13
2022-11-30T23:05:54.021Z,49.33
2022-11-30T23:08:56.599Z,46.87
2022-11-30T23:11:58.653Z,33.90
2022-11-30T23:15:00.458Z,41.53
2022-11-30T23:18:02.269Z,35.58
2022-11-30T23:21:07.224Z,38.83
2022-11-30T23:24:17.490Z,35.47
2022-11-30T23:27:19.270Z,37.72
2022-11-30T23:30:21.063Z,41.10
2022-11-30T23:38:08.071Z,35.50
2022-11-30T23:41:11.826Z,67.30
2022-11-30T23:44:13.761Z,69.25
2022-11-30T23:47:18.401Z,46.90
2022-11-30T23:50:20.632Z,45.45
2022-11-30T23:53:23.127Z,46.03
2022-11-30T23:56:25.185Z,49.03
2022-11-30T23:59:26.960Z,38.95
